createdAt,value
2023-05-14T00:02:09.680Z,100707.19
2023-05-14T00:04:36.691Z,100707.19
2023-05-14T00:07:03.716Z,100712.75
2023-05-14T00:09:30.668Z,100709.59
2023-05-14T00:11:57.637Z,100698.22
2023-05-14T00:14:25.610Z,100699.34
2023-05-14T00:16:52.478Z,100689.78
2023-05-14T00:19:19.391Z,100696.00
2023-05-14T00:21:48.150Z,100697.84
2023-05-14T00:24:15.233Z,100694.22
2023-05-14T00:26:42.044Z,100697.53
2023-05-14T00:29:09.538Z,100689.94
2023-05-14T00:31:36.444Z,100687.91
2023-05-14T00:34:03.398Z,100685.97
2023-05-14T00:36:31.357Z,100686.41
2023-05-14T00:38:58.206Z,100690.16
2023-05-14T00:41:25.082Z,100684.06
2023-05-14T00:43:51.930Z,100689.34
2023-05-14T00:46:18.933Z,100685.78
2023-05-14T00:48:46.472Z,100683.41
2023-05-14T00:51:13.619Z,100685.38
2023-05-14T00:53:40.553Z,100676.38
2023-05-14T00:56:08.327Z,100678.63
2023-05-14T00:58:35.503Z,100677.53
2023-05-14T01:01:03.152Z,100672.84
2023-05-14T01:03:32.063Z,100669.78
2023-05-14T01:06:18.063Z,100667.75
2023-05-14T01:09:06.604Z,100668.00
2023-05-14T01:12:06.174Z,100664.84
2023-05-14T01:14:59.665Z,100662.09
2023-05-14T01:17:32.607Z,100658.25
2023-05-14T01:20:00.567Z,100650.75
2023-05-14T01:22:27.484Z,100652.78
2023-05-14T01:24:54.328Z,100661.78
2023-05-14T01:27:53.537Z,100658.06
2023-05-14T01:30:48.137Z,100661.28
2023-05-14T01:33:18.195Z,100660.59
2023-05-14T01:35:45.786Z,100669.56
2023-05-14T01:38:15.420Z,100666.38
2023-05-14T01:40:42.475Z,100668.44
2023-05-14T01:43:09.588Z,100672.19
2023-05-14T01:45:37.074Z,100671.34
2023-05-14T01:48:05.680Z,100670.53
2023-05-14T01:50:32.541Z,100671.50
2023-05-14T01:52:59.408Z,100663.22
2023-05-14T01:55:26.278Z,100665.13
2023-05-14T01:57:53.544Z,100662.22
2023-05-14T02:00:23.830Z,100659.72
2023-05-14T02:02:51.027Z,100666.06
2023-05-14T02:05:18.203Z,100659.31
2023-05-14T02:07:45.197Z,100656.81
2023-05-14T02:10:12.132Z,100669.25
2023-05-14T02:12:39.017Z,100665.94
2023-05-14T02:15:09.347Z,100663.44
2023-05-14T02:17:36.318Z,100653.34
2023-05-14T02:20:04.002Z,100666.75
2023-05-14T02:22:30.916Z,100651.13
2023-05-14T02:24:57.745Z,100659.28
2023-05-14T02:27:24.926Z,100662.19
2023-05-14T02:29:51.816Z,100652.78
2023-05-14T02:32:18.734Z,100647.81
2023-05-14T02:34:45.614Z,100652.47
2023-05-14T02:37:12.499Z,100652.31
2023-05-14T02:39:39.421Z,100656.19
2023-05-14T02:42:06.986Z,100656.72
2023-05-14T02:44:33.928Z,100653.81
2023-05-14T02:47:00.875Z,100653.94
2023-05-14T02:49:27.834Z,100651.69
2023-05-14T02:51:54.756Z,100643.63
2023-05-14T02:54:21.589Z,100644.16
2023-05-14T02:56:48.476Z,100648.00
2023-05-14T02:59:15.428Z,100642.22
2023-05-14T03:01:42.700Z,100645.38
2023-05-14T03:04:10.050Z,100653.88
2023-05-14T03:06:36.952Z,100637.41
2023-05-14T03:09:04.128Z,100645.78
2023-05-14T03:11:31.257Z,100645.06
2023-05-14T03:13:58.060Z,100650.59
2023-05-14T03:16:25.025Z,100642.53
2023-05-14T03:18:52.068Z,100645.78
2023-05-14T03:21:18.992Z,100646.88
2023-05-14T03:23:45.838Z,100645.59
2023-05-14T03:26:12.845Z,100638.59
2023-05-14T03:28:40.818Z,100637.75
2023-05-14T03:31:07.773Z,100636.66
2023-05-14T03:33:34.798Z,100640.22
2023-05-14T03:36:01.752Z,100639.53
2023-05-14T03:38:28.557Z,100641.59
2023-05-14T03:40:55.408Z,100634.81
2023-05-14T03:43:22.310Z,100638.25
2023-05-14T03:45:52.374Z,100635.78
2023-05-14T03:48:22.214Z,100644.81
2023-05-14T03:50:49.084Z,100641.50
2023-05-14T03:53:16.689Z,100643.22
2023-05-14T03:55:43.566Z,100652.31
2023-05-14T03:58:14.421Z,100653.19
2023-05-14T04:00:44.351Z,100649.00
2023-05-14T04:03:11.815Z,100651.13
2023-05-14T04:05:38.845Z,100649.69
2023-05-14T04:08:05.856Z,100641.06
2023-05-14T04:10:32.868Z,100650.66
2023-05-14T04:13:00.070Z,100653.09
2023-05-14T04:15:27.131Z,100650.50
2023-05-14T04:17:54.046Z,100652.22
2023-05-14T04:20:21.165Z,100654.78
2023-05-14T04:22:48.013Z,100654.25
2023-05-14T04:25:14.854Z,100647.09
2023-05-14T04:27:41.730Z,100648.44
2023-05-14T04:30:09.586Z,100640.03
2023-05-14T04:32:36.766Z,100648.41
2023-05-14T04:35:04.788Z,100655.44
2023-05-14T04:37:31.903Z,100647.44
2023-05-14T04:39:58.933Z,100645.91
2023-05-14T04:42:25.818Z,100646.44
2023-05-14T04:44:52.678Z,100643.94
2023-05-14T04:47:21.046Z,100639.00
2023-05-14T04:49:48.279Z,100644.19
2023-05-14T04:52:15.354Z,100646.25
2023-05-14T04:54:42.283Z,100647.56
2023-05-14T04:57:09.190Z,100651.09
2023-05-14T04:59:36.459Z,100651.66
2023-05-14T05:02:03.506Z,100655.81
2023-05-14T05:04:30.525Z,100661.91
2023-05-14T05:06:57.427Z,100666.34
2023-05-14T05:09:24.368Z,100663.66
2023-05-14T05:11:51.317Z,100663.97
2023-05-14T05:14:18.242Z,100659.59
2023-05-14T05:16:45.136Z,100662.41
2023-05-14T05:19:12.009Z,100666.84
2023-05-14T05:21:40.752Z,100666.34
2023-05-14T05:24:08.595Z,100671.34
2023-05-14T05:26:38.408Z,100679.41
2023-05-14T05:29:06.158Z,100673.84
2023-05-14T05:31:33.398Z,100682.81
2023-05-14T05:34:01.067Z,100677.25
2023-05-14T05:36:28.599Z,100684.25
2023-05-14T05:38:56.147Z,100684.25
2023-05-14T05:41:22.969Z,100680.00
2023-05-14T05:43:49.785Z,100678.75
2023-05-14T05:46:16.792Z,100673.13
2023-05-14T05:48:43.644Z,100677.56
2023-05-14T05:51:11.029Z,100678.56
2023-05-14T05:53:37.912Z,100678.47
2023-05-14T05:56:05.052Z,100681.06
2023-05-14T05:58:31.937Z,100678.44
2023-05-14T06:00:59.235Z,100670.16
2023-05-14T06:03:26.992Z,100675.31
2023-05-14T06:05:54.004Z,100676.16
2023-05-14T06:08:20.953Z,100678.13
2023-05-14T06:10:47.913Z,100685.03
2023-05-14T06:13:14.787Z,100682.97
2023-05-14T06:15:41.696Z,100681.31
2023-05-14T06:18:08.705Z,100676.34
2023-05-14T06:20:35.613Z,100672.19
2023-05-14T06:23:02.448Z,100680.34
2023-05-14T06:25:29.332Z,100672.06
2023-05-14T06:27:56.188Z,100673.56
2023-05-14T06:30:23.394Z,100679.50
2023-05-14T06:32:50.534Z,100674.53
2023-05-14T06:35:19.062Z,100677.84
2023-05-14T06:37:46.116Z,100668.47
2023-05-14T06:40:15.710Z,100671.78
2023-05-14T06:42:42.625Z,100671.84
2023-05-14T06:45:09.883Z,100677.75
2023-05-14T06:47:36.772Z,100669.47
2023-05-14T06:50:04.189Z,100670.41
2023-05-14T06:52:31.075Z,100666.94
2023-05-14T06:54:57.958Z,100670.53
2023-05-14T06:57:24.987Z,100661.69
2023-05-14T06:59:52.111Z,100667.00
2023-05-14T07:02:18.960Z,100666.09
2023-05-14T07:04:46.591Z,100665.41
2023-05-14T07:07:15.458Z,100661.47
2023-05-14T07:09:42.721Z,100659.28
2023-05-14T07:12:09.666Z,100656.81
2023-05-14T07:14:36.517Z,100663.00
2023-05-14T07:17:03.464Z,100671.38
2023-05-14T07:19:30.483Z,100669.94
2023-05-14T07:21:59.817Z,100662.84
2023-05-14T07:24:26.706Z,100657.13
2023-05-14T07:26:56.154Z,100659.28
2023-05-14T07:29:25.196Z,100658.09
2023-05-14T07:31:54.516Z,100661.16
2023-05-14T07:34:21.368Z,100643.53
2023-05-14T07:36:48.836Z,100646.63
2023-05-14T07:39:15.827Z,100639.94
2023-05-14T07:41:42.767Z,100637.31
2023-05-14T07:44:09.979Z,100633.41
2023-05-14T07:46:37.160Z,100637.44
2023-05-14T07:49:06.496Z,100634.75
2023-05-14T07:51:33.485Z,100627.44
2023-05-14T07:54:00.954Z,100624.78
2023-05-14T07:56:27.894Z,100623.69
2023-05-14T07:58:54.815Z,100631.19
2023-05-14T08:01:32.993Z,100621.09
2023-05-14T08:04:00.048Z,100612.44
2023-05-14T08:06:29.535Z,100608.16
2023-05-14T08:08:56.363Z,100614.84
2023-05-14T08:11:25.968Z,100615.25
2023-05-14T08:13:52.784Z,100618.75
2023-05-14T08:16:23.052Z,100608.03
2023-05-14T08:18:49.984Z,100612.00
2023-05-14T08:21:19.550Z,100605.25
2023-05-14T08:23:46.432Z,100604.94
2023-05-14T08:26:16.394Z,100608.00
2023-05-14T08:28:54.808Z,100603.16
2023-05-14T08:31:22.994Z,100602.34
2023-05-14T08:33:49.935Z,100601.34
2023-05-14T08:36:16.948Z,100592.47
2023-05-14T08:38:45.363Z,100592.72
2023-05-14T08:41:16.899Z,100596.72
2023-05-14T08:44:12.906Z,100591.25
2023-05-14T08:46:40.764Z,100589.03
2023-05-14T08:49:35.905Z,100594.97
2023-05-14T08:52:03.296Z,100591.66
2023-05-14T08:54:32.482Z,100581.38
2023-05-14T08:56:59.549Z,100586.34
2023-05-14T08:59:26.851Z,100578.59
2023-05-14T09:01:59.257Z,100578.44
2023-05-14T09:04:27.331Z,100574.25
2023-05-14T09:06:55.569Z,100571.53
2023-05-14T09:09:23.705Z,100579.03
2023-05-14T09:11:53.085Z,100556.81
2023-05-14T09:14:24.025Z,100564.03
2023-05-14T09:16:54.626Z,100559.59
2023-05-14T09:19:22.125Z,100561.53
2023-05-14T09:21:49.984Z,100559.19
2023-05-14T09:24:22.114Z,100562.50
2023-05-14T09:26:54.997Z,100558.19
2023-05-14T09:29:24.322Z,100559.97
2023-05-14T09:31:52.213Z,100563.91
2023-05-14T09:34:34.176Z,100548.44
2023-05-14T09:37:10.566Z,100553.31
2023-05-14T09:39:38.438Z,100554.28
2023-05-14T09:42:06.127Z,100545.69
2023-05-14T09:44:37.982Z,100554.69
2023-05-14T09:47:05.492Z,100545.75
2023-05-14T09:49:32.607Z,100551.16
2023-05-14T09:52:02.485Z,100546.88
2023-05-14T09:54:30.107Z,100552.06
2023-05-14T09:56:57.310Z,100552.59
2023-05-14T09:59:24.193Z,100553.00
2023-05-14T10:01:52.389Z,100552.03
2023-05-14T10:04:20.829Z,100556.31
2023-05-14T10:06:57.167Z,100549.09
2023-05-14T10:09:28.314Z,100562.06
2023-05-14T10:12:03.616Z,100559.34
2023-05-14T10:14:39.288Z,100556.63
2023-05-14T10:17:08.992Z,100556.06
2023-05-14T10:19:41.071Z,100563.78
2023-05-14T10:22:10.326Z,100551.75
2023-05-14T10:24:41.489Z,100553.53
2023-05-14T10:27:14.393Z,100549.63
2023-05-14T10:29:54.636Z,100552.06
2023-05-14T10:32:25.499Z,100548.47
2023-05-14T10:35:04.032Z,100538.28
2023-05-14T10:37:33.358Z,100550.94
2023-05-14T10:40:06.201Z,100545.91
2023-05-14T10:42:43.342Z,100542.84
2023-05-14T10:45:15.922Z,100541.31
2023-05-14T10:47:46.232Z,100532.50
2023-05-14T10:50:15.497Z,100539.59
2023-05-14T10:52:44.756Z,100543.78
2023-05-14T10:55:16.999Z,100542.56
2023-05-14T10:57:45.993Z,100543.22
2023-05-14T11:00:14.746Z,100543.25
2023-05-14T11:02:45.694Z,100539.09
2023-05-14T11:05:16.908Z,100543.75
2023-05-14T11:07:48.748Z,100543.22
2023-05-14T11:10:22.236Z,100533.91
2023-05-14T11:12:51.545Z,100539.69
2023-05-14T11:15:21.285Z,100538.50
2023-05-14T11:17:50.214Z,100534.88
2023-05-14T11:20:18.247Z,100530.16
2023-05-14T11:22:47.823Z,100535.47
2023-05-14T11:25:15.498Z,100532.97
2023-05-14T11:27:45.239Z,100523.56
2023-05-14T11:30:18.008Z,100529.97
2023-05-14T11:32:47.336Z,100526.72
2023-05-14T11:35:15.392Z,100523.50
2023-05-14T11:37:43.358Z,100517.59
2023-05-14T11:40:16.757Z,100526.78
2023-05-14T11:42:43.915Z,100516.91
2023-05-14T11:45:14.401Z,100517.78
2023-05-14T11:47:42.771Z,100522.19
2023-05-14T11:50:10.266Z,100507.22
2023-05-14T11:52:41.521Z,100514.78
2023-05-14T11:55:14.509Z,100510.69
2023-05-14T11:57:41.570Z,100511.75
2023-05-14T12:00:13.472Z,100506.53
2023-05-14T12:02:40.755Z,100506.28
2023-05-14T12:05:09.113Z,100511.88
2023-05-14T12:07:36.369Z,100512.69
2023-05-14T12:10:07.588Z,100503.69
2023-05-14T12:12:39.313Z,100506.97
2023-05-14T12:15:13.789Z,100504.97
2023-05-14T12:17:41.451Z,100492.72
2023-05-14T12:20:10.954Z,100494.81
2023-05-14T12:22:38.045Z,100484.81
2023-05-14T12:25:12.322Z,100475.41
2023-05-14T12:27:39.270Z,100482.41
2023-05-14T12:32:41.959Z,100471.19
2023-05-14T12:35:09.811Z,100479.03
2023-05-14T12:37:37.594Z,100464.41
2023-05-14T12:40:09.530Z,100458.94
2023-05-14T12:42:36.846Z,100457.75
2023-05-14T12:45:07.187Z,100451.22
2023-05-14T12:47:34.843Z,100453.06
2023-05-14T12:50:02.179Z,100450.78
2023-05-14T12:52:37.376Z,100443.19
2023-05-14T12:55:07.667Z,100446.81
2023-05-14T12:57:35.511Z,100439.03
2023-05-14T13:00:06.817Z,100425.50
2023-05-14T13:02:43.193Z,100423.88
2023-05-14T13:05:13.669Z,100437.97
2023-05-14T13:07:40.776Z,100434.13
2023-05-14T13:10:08.652Z,100434.25
2023-05-14T13:12:35.613Z,100429.59
2023-05-14T13:15:02.543Z,100439.19
2023-05-14T13:17:29.487Z,100430.69
2023-05-14T13:19:56.437Z,100437.53
2023-05-14T13:22:23.307Z,100437.09
2023-05-14T13:24:50.209Z,100415.78
2023-05-14T13:27:17.046Z,100418.06
2023-05-14T13:29:44.054Z,100408.34
2023-05-14T13:32:11.012Z,100400.97
2023-05-14T13:34:37.962Z,100408.72
2023-05-14T13:37:04.910Z,100408.22
2023-05-14T13:39:31.753Z,100406.22
2023-05-14T13:41:58.659Z,100386.28
2023-05-14T13:44:25.590Z,100389.31
2023-05-14T13:46:53.209Z,100392.31
2023-05-14T13:49:20.257Z,100379.88
2023-05-14T13:51:47.189Z,100380.53
2023-05-14T13:54:14.054Z,100386.66
2023-05-14T13:56:41.268Z,100376.03
2023-05-14T13:59:08.163Z,100372.47
2023-05-14T14:01:35.120Z,100364.81
2023-05-14T14:04:01.970Z,100365.16
2023-05-14T14:06:32.413Z,100362.22
2023-05-14T14:08:59.290Z,100358.22
2023-05-14T14:11:26.790Z,100349.63
2023-05-14T14:13:54.361Z,100357.22
2023-05-14T14:16:21.183Z,100347.97
2023-05-14T14:18:48.150Z,100348.06
2023-05-14T14:21:18.005Z,100336.53
2023-05-14T14:23:47.324Z,100335.69
2023-05-14T14:26:14.288Z,100331.78
2023-05-14T14:28:41.140Z,100338.91
2023-05-14T14:31:08.058Z,100336.63
2023-05-14T14:33:34.956Z,100328.22
2023-05-14T14:36:01.814Z,100323.47
2023-05-14T14:38:28.713Z,100328.56
2023-05-14T14:40:55.631Z,100322.63
2023-05-14T14:43:22.508Z,100324.16
2023-05-14T14:45:49.457Z,100324.34
2023-05-14T14:48:25.499Z,100319.22
2023-05-14T14:50:53.541Z,100331.00
2023-05-14T14:53:21.570Z,100319.59
2023-05-14T14:55:49.539Z,100311.00
2023-05-14T14:58:17.823Z,100310.72
2023-05-14T15:00:45.544Z,100314.72
2023-05-14T15:03:12.592Z,100312.06
2023-05-14T15:05:39.567Z,100311.69
2023-05-14T15:08:06.571Z,100311.88
2023-05-14T15:10:37.658Z,100306.56
2023-05-14T15:13:06.625Z,100304.59
2023-05-14T15:15:34.849Z,100307.25
2023-05-14T15:18:02.734Z,100304.28
2023-05-14T15:20:30.007Z,100309.03
2023-05-14T15:22:57.028Z,100306.88
2023-05-14T15:25:25.436Z,100302.88
2023-05-14T15:27:52.398Z,100295.75
2023-05-14T15:30:19.402Z,100296.38
2023-05-14T15:32:46.623Z,100298.38
2023-05-14T15:35:14.108Z,100300.88
2023-05-14T15:37:44.609Z,100303.78
2023-05-14T15:40:12.569Z,100291.38
2023-05-14T15:42:42.377Z,100296.25
2023-05-14T15:45:11.258Z,100297.16
2023-05-14T15:47:38.397Z,100299.78
2023-05-14T15:50:06.363Z,100293.22
2023-05-14T15:52:33.893Z,100293.16
2023-05-14T15:55:00.818Z,100290.25
2023-05-14T15:57:27.741Z,100281.94
2023-05-14T15:59:54.685Z,100286.25
2023-05-14T16:02:21.502Z,100283.78
2023-05-14T16:04:49.581Z,100279.50
2023-05-14T16:07:16.523Z,100273.28
2023-05-14T16:09:43.488Z,100283.81
2023-05-14T16:12:10.489Z,100277.19
2023-05-14T16:14:38.300Z,100278.28
2023-05-14T16:17:06.061Z,100272.00
2023-05-14T16:19:32.924Z,100281.41
2023-05-14T16:21:59.812Z,100274.72
2023-05-14T16:24:26.665Z,100277.81
2023-05-14T16:26:53.562Z,100277.66
2023-05-14T16:29:20.481Z,100281.41
2023-05-14T16:31:47.370Z,100272.44
2023-05-14T16:34:14.405Z,100268.22
2023-05-14T16:36:41.400Z,100268.88
2023-05-14T16:39:08.723Z,100272.28
2023-05-14T16:41:38.668Z,100276.31
2023-05-14T16:44:05.550Z,100268.91
2023-05-14T16:46:32.988Z,100272.28
2023-05-14T16:49:00.022Z,100268.16
2023-05-14T16:51:26.857Z,100267.72
2023-05-14T16:53:55.410Z,100262.78
2023-05-14T16:56:22.729Z,100265.63
2023-05-14T16:58:49.776Z,100264.78
2023-05-14T17:01:16.699Z,100264.44
2023-05-14T17:03:45.526Z,100267.19
2023-05-14T17:06:12.383Z,100272.53
2023-05-14T17:08:39.215Z,100269.78
2023-05-14T17:11:06.191Z,100273.97
2023-05-14T17:13:33.691Z,100261.44
2023-05-14T17:16:01.769Z,100272.03
2023-05-14T17:18:28.781Z,100265.47
2023-05-14T17:20:55.729Z,100271.09
2023-05-14T17:23:22.614Z,100273.47
2023-05-14T17:25:49.716Z,100276.13
2023-05-14T17:28:16.697Z,100271.81
2023-05-14T17:30:43.906Z,100268.97
2023-05-14T17:33:11.385Z,100268.19
2023-05-14T17:35:38.505Z,100269.81
2023-05-14T17:38:05.442Z,100275.13
2023-05-14T17:40:33.202Z,100270.47
2023-05-14T17:43:00.853Z,100267.81
2023-05-14T17:45:29.499Z,100274.91
2023-05-14T17:47:59.550Z,100283.88
2023-05-14T17:50:26.617Z,100278.78
2023-05-14T17:52:56.921Z,100286.09
2023-05-14T17:55:24.404Z,100285.41
2023-05-14T17:57:51.475Z,100282.13
2023-05-14T18:00:20.966Z,100285.31
2023-05-14T18:02:51.472Z,100279.53
2023-05-14T18:05:20.590Z,100285.84
2023-05-14T18:07:50.290Z,100286.19
2023-05-14T18:10:20.289Z,100289.38
2023-05-14T18:12:47.395Z,100285.91
2023-05-14T18:15:14.666Z,100287.25
2023-05-14T18:17:43.969Z,100291.09
2023-05-14T18:20:13.499Z,100295.25
2023-05-14T18:22:41.931Z,100295.63
2023-05-14T18:25:09.569Z,100297.97
2023-05-14T18:27:44.052Z,100293.19
2023-05-14T18:30:15.326Z,100300.50
2023-05-14T18:32:44.608Z,100301.19
2023-05-14T18:35:12.333Z,100306.81
2023-05-14T18:37:42.186Z,100316.75
2023-05-14T18:40:09.751Z,100311.31
2023-05-14T18:42:39.597Z,100321.59
2023-05-14T18:45:09.333Z,100316.84
2023-05-14T18:47:36.487Z,100314.69
2023-05-14T18:50:07.237Z,100323.81
2023-05-14T18:52:37.184Z,100320.84
2023-05-14T18:55:11.775Z,100318.72
2023-05-14T18:57:43.463Z,100318.88
2023-05-14T19:00:11.383Z,100330.63
2023-05-14T19:02:38.711Z,100324.03
2023-05-14T19:05:09.247Z,100326.03
2023-05-14T19:07:48.170Z,100328.03
2023-05-14T19:10:22.451Z,100337.94
2023-05-14T19:12:49.428Z,100336.47
2023-05-14T19:15:19.340Z,100341.09
2023-05-14T19:17:49.390Z,100338.81
2023-05-14T19:20:16.491Z,100353.19
2023-05-14T19:22:45.238Z,100345.59
2023-05-14T19:25:12.219Z,100346.75
2023-05-14T19:27:39.258Z,100348.59
2023-05-14T19:30:10.005Z,100342.63
2023-05-14T19:32:38.254Z,100357.66
2023-05-14T19:35:08.617Z,100351.22
2023-05-14T19:37:35.839Z,100352.22
2023-05-14T19:40:05.247Z,100356.19
2023-05-14T19:42:35.154Z,100359.34
2023-05-14T19:45:02.261Z,100369.09
2023-05-14T19:47:31.812Z,100364.47
2023-05-14T19:50:02.237Z,100357.88
2023-05-14T19:52:34.280Z,100366.44
2023-05-14T19:55:03.478Z,100366.28
2023-05-14T19:57:33.575Z,100371.41
2023-05-14T20:00:05.298Z,100371.06
2023-05-14T20:02:34.004Z,100366.78
2023-05-14T20:05:13.342Z,100364.78
2023-05-14T20:07:43.803Z,100368.91
2023-05-14T20:10:11.433Z,100371.75
2023-05-14T20:12:47.459Z,100367.13
2023-05-14T20:15:16.919Z,100370.38
2023-05-14T20:17:43.816Z,100368.41
2023-05-14T20:20:12.039Z,100358.19
2023-05-14T20:22:39.937Z,100348.78
2023-05-14T20:25:07.804Z,100355.69
2023-05-14T20:27:34.785Z,100356.34
2023-05-14T20:30:02.012Z,100354.19
2023-05-14T20:32:28.949Z,100360.47
2023-05-14T20:34:55.893Z,100356.31
2023-05-14T20:37:23.937Z,100350.53
2023-05-14T20:39:50.793Z,100356.81
2023-05-14T20:42:17.671Z,100356.41
2023-05-14T20:44:44.549Z,100353.28
2023-05-14T20:47:12.586Z,100357.72
2023-05-14T20:49:39.383Z,100350.16
2023-05-14T20:52:06.541Z,100347.16
2023-05-14T20:54:33.379Z,100349.13
2023-05-14T20:57:00.218Z,100350.59
2023-05-14T20:59:27.092Z,100341.50
2023-05-14T21:01:53.989Z,100342.66
2023-05-14T21:04:21.095Z,100346.59
2023-05-14T21:06:48.068Z,100346.75
2023-05-14T21:09:14.925Z,100349.41
2023-05-14T21:11:41.878Z,100344.78
2023-05-14T21:14:08.738Z,100355.63
2023-05-14T21:16:35.810Z,100340.09
2023-05-14T21:19:02.864Z,100339.81
2023-05-14T21:21:29.697Z,100337.00
2023-05-14T21:23:56.690Z,100332.56
2023-05-14T21:26:24.726Z,100327.13
2023-05-14T21:28:51.658Z,100330.09
2023-05-14T21:31:18.495Z,100328.75
2023-05-14T21:33:45.453Z,100322.97
2023-05-14T21:36:12.507Z,100332.16
2023-05-14T21:38:39.379Z,100327.91
2023-05-14T21:41:06.310Z,100320.28
2023-05-14T21:43:33.284Z,100321.13
2023-05-14T21:46:00.387Z,100311.72
2023-05-14T21:48:28.223Z,100314.00
2023-05-14T21:50:55.152Z,100307.94
2023-05-14T21:53:22.204Z,100302.13
2023-05-14T21:55:49.824Z,100304.09
2023-05-14T21:58:16.741Z,100300.66
2023-05-14T22:00:43.664Z,100311.34
2023-05-14T22:03:10.648Z,100301.13
2023-05-14T22:05:37.545Z,100292.56
2023-05-14T22:08:04.621Z,100292.03
2023-05-14T22:10:31.449Z,100294.81
2023-05-14T22:12:58.274Z,100299.44
2023-05-14T22:15:25.541Z,100299.22
2023-05-14T22:17:52.720Z,100293.28
2023-05-14T22:20:19.634Z,100294.59
2023-05-14T22:22:46.514Z,100296.66
2023-05-14T22:25:13.309Z,100294.66
2023-05-14T22:27:40.283Z,100293.31
2023-05-14T22:30:09.142Z,100289.34
2023-05-14T22:32:36.187Z,100285.00
2023-05-14T22:35:03.236Z,100287.94
2023-05-14T22:37:30.121Z,100279.69
2023-05-14T22:39:56.965Z,100287.06
2023-05-14T22:42:23.915Z,100279.63
2023-05-14T22:44:50.709Z,100280.91
2023-05-14T22:47:17.713Z,100282.03
2023-05-14T22:49:44.542Z,100279.19
2023-05-14T22:52:11.493Z,100279.66
2023-05-14T22:54:38.431Z,100277.47
2023-05-14T22:57:06.636Z,100278.75
2023-05-14T22:59:33.877Z,100276.97
2023-05-14T23:02:00.823Z,100277.41
2023-05-14T23:04:27.761Z,100281.31
2023-05-14T23:06:54.771Z,100275.41
2023-05-14T23:09:21.991Z,100272.94
2023-05-14T23:11:48.793Z,100269.63
2023-05-14T23:14:17.693Z,100262.84
2023-05-14T23:16:44.717Z,100262.84
2023-05-14T23:19:11.732Z,100268.56
2023-05-14T23:21:38.678Z,100260.50
2023-05-14T23:24:05.964Z,100267.44
2023-05-14T23:26:32.942Z,100266.44
2023-05-14T23:28:59.801Z,100266.59
2023-05-14T23:31:26.904Z,100264.81
2023-05-14T23:33:53.780Z,100261.50
2023-05-14T23:36:20.696Z,100260.00
2023-05-14T23:38:47.613Z,100263.75
2023-05-14T23:41:14.481Z,100259.63
2023-05-14T23:43:41.402Z,100259.94
2023-05-14T23:46:08.729Z,100254.13
2023-05-14T23:48:35.646Z,100258.31
2023-05-14T23:51:02.585Z,100257.25
2023-05-14T23:53:29.427Z,100254.13
2023-05-14T23:55:56.494Z,100243.50
2023-05-14T23:58:23.360Z,100245.75
